עמוד ראשי
METAR-TAF:

METAR-TAF

שדות תעופה :

Sumburgh, איי שטלנד, סקוטלנד

קו רוחב: 59-53N, קו אורך: 001-18W, גובה: 5מטר

תצפית מזג אוויר נוכחית

הדו"ח נערך לפני 18דקות, בשעה 14:50 UTC
רוח 4קשר מכיוון דרום
טמפרטורת 12 צלסיוס
לחות 82%
לחץ 1020 hPa
ראות 10 קילומטר או יותר
עננים פזורים בגובה 1100רגל
עננים בינוניים בגובה 4800רגל

METAR: EGPB 191450Z 18004KT 9999 SCT011 BKN048 12/09 Q1020

זמן: 16:08 (15:08 UTC)

תחזית

הדו"ח נערך לפני 1 שעות ו 7דקות, בשעה 14:01 UTC
תחזית בתוקף מ 19 ב 15 UTC עד 19 ב 24 UTC
רוח 5קשר מכיוון מזרח/דרום-מזרח
ראות 10 קילומטר או יותר
עננים פזורים בגובה 1500רגל
הסתברות 40% :
זמנית מ -
19 ב 15 UTC עד 19 ב 18 UTC
עננים בינוניים בגובה 1200רגל

TAF: EGPB 191401Z 1915/1924 12005KT 9999 SCT015 PROB40 TEMPO 1915/1918 BKN012

תצפיות ותחזיות מזג אוויר לגבי יותר מ- 4,000 שדות תעופה ברחבי העולם. דוחות METAR ו- TAF.

התחנות הזמינות מסומנות בנקודות צהובות ואדומות על גבי המפה.

העבר את העכבר לנקודה הצבעונית על מנת לראות את שם התחנה.

לאחר מכן, לחץ כדי לראות את תוכן ואת תחזיות מזג האוויר.

כדי לשנות את המפה: לחץ על הכפתורים הירוקים עם הפלוס השחור כדי להתקרב; על הכפתור הירוק עם המקף כדי להתרחק; או בחיצים הירוקים למפות סמוכות.


METAR-TAF: